Time;durP1;ratioP1;P1;durP2;ratioP2;P2;SDS_P1;SDS_P2;PMS_P1;PMS_P2;Temp;Humidity;BMP_temperature;BMP_pressure;BME280_temperature;BME280_humidity;BME280_pressure;Samples;Min_cycle;Max_cycle;Signal;HPM_P1;HPM_P2
2022/08/23 00:01:45;;;;;;;10.50;7.30;;;17.50;99.90;;;;;;5086572;28;20036;-78
2022/08/23 00:04:20;;;;;;;11.07;7.72;;;17.50;99.90;;;;;;5107694;28;20046;-78
2022/08/23 00:06:48;;;;;;;8.95;6.70;;;17.50;99.90;;;;;;5110630;28;20082;-78
2022/08/23 00:09:14;;;;;;;11.35;9.05;;;17.40;99.90;;;;;;5105891;28;20677;-78
2022/08/23 00:11:50;;;;;;;13.77;8.38;;;17.40;99.90;;;;;;5113099;28;20076;-78
2022/08/23 00:14:23;;;;;;;11.27;9.63;;;17.40;99.90;;;;;;5084347;28;20047;-78
2022/08/23 00:16:50;;;;;;;11.43;7.75;;;17.40;99.90;;;;;;5098256;27;20049;-78
2022/08/23 00:19:17;;;;;;;14.13;9.63;;;17.30;99.90;;;;;;5120551;27;20071;-78
2022/08/23 00:21:44;;;;;;;12.00;9.68;;;17.40;99.90;;;;;;5095293;27;20054;-78
2022/08/23 00:24:12;;;;;;;12.32;9.55;;;17.30;99.90;;;;;;5091740;27;20115;-78
2022/08/23 00:27:00;;;;;;;11.10;8.73;;;17.30;99.90;;;;;;5091938;27;20913;-78
2022/08/23 00:29:40;;;;;;;12.43;8.65;;;17.30;99.90;;;;;;5110263;27;20422;-78
2022/08/23 00:32:09;;;;;;;12.43;9.27;;;17.20;99.90;;;;;;5096542;27;20436;-78
2022/08/23 00:34:35;;;;;;;11.02;8.80;;;17.10;99.90;;;;;;5099087;27;20087;-78
2022/08/23 00:37:03;;;;;;;9.82;8.25;;;17.10;99.90;;;;;;5096086;28;20809;-78
2022/08/23 00:39:29;;;;;;;12.60;8.50;;;17.10;99.90;;;;;;5093037;27;20048;-78
2022/08/23 00:48:00;;;;;;;13.07;9.65;;;17.00;99.90;;;;;;5115800;27;20055;-78
2022/08/23 00:50:35;;;;;;;10.25;6.95;;;17.00;99.90;;;;;;5106175;27;20075;-78
2022/08/23 00:53:08;;;;;;;10.98;9.43;;;16.90;99.90;;;;;;5126210;27;20452;-77
2022/08/23 00:55:35;;;;;;;12.80;9.88;;;16.90;99.90;;;;;;5106139;27;20447;-79
2022/08/23 00:58:02;;;;;;;9.52;7.65;;;16.90;99.90;;;;;;5131549;27;20055;-80
2022/08/23 01:00:28;;;;;;;11.70;8.90;;;16.90;99.90;;;;;;5089851;27;20044;-79
2022/08/23 01:02:54;;;;;;;10.80;9.30;;;16.90;99.90;;;;;;5101703;27;20031;-79
2022/08/23 01:05:25;;;;;;;15.13;12.40;;;16.90;99.90;;;;;;5098395;28;20042;-79
2022/08/23 01:07:54;;;;;;;12.98;10.40;;;16.90;99.90;;;;;;5091815;27;20043;-79
2022/08/23 01:10:42;;;;;;;13.18;10.40;;;16.80;99.90;;;;;;5094566;27;20086;-80
2022/08/23 01:13:16;;;;;;;10.13;9.02;;;16.80;99.90;;;;;;5117392;27;20074;-80
2022/08/23 01:15:50;;;;;;;11.48;8.43;;;16.80;99.90;;;;;;5095450;27;20099;-79
2022/08/23 01:18:21;;;;;;;12.52;9.32;;;16.70;99.90;;;;;;5114938;27;20130;-79
2022/08/23 01:21:00;;;;;;;12.15;10.00;;;16.70;99.90;;;;;;5118900;27;20044;-79
2022/08/23 01:23:57;;;;;;;10.05;8.80;;;16.70;99.90;;;;;;5111415;27;20097;-79
2022/08/23 01:26:24;;;;;;;16.58;12.70;;;16.70;99.90;;;;;;5092369;27;20055;-79
2022/08/23 01:28:52;;;;;;;20.63;16.63;;;16.70;99.90;;;;;;5076621;27;20031;-79
2022/08/23 01:31:19;;;;;;;21.63;17.35;;;16.70;99.90;;;;;;5118533;27;20067;-79
2022/08/23 01:33:53;;;;;;;12.15;10.90;;;16.70;99.90;;;;;;5097553;27;20041;-79
2022/08/23 01:36:19;;;;;;;12.40;11.10;;;16.70;99.90;;;;;;5115694;27;20046;-79
2022/08/23 01:38:45;;;;;;;13.73;11.32;;;16.70;99.90;;;;;;5070214;27;20083;-79
2022/08/23 01:41:11;;;;;;;11.07;10.00;;;16.70;99.90;;;;;;5087337;27;20481;-79
2022/08/23 01:43:37;;;;;;;13.43;12.00;;;16.70;99.90;;;;;;5097043;27;20058;-79
2022/08/23 01:46:13;;;;;;;10.85;9.73;;;16.70;99.90;;;;;;5116023;27;20035;-79
2022/08/23 01:48:39;;;;;;;12.07;9.77;;;16.60;99.90;;;;;;5109096;27;20452;-79
2022/08/23 01:51:06;;;;;;;9.63;8.00;;;16.50;99.90;;;;;;5115464;27;20046;-79
2022/08/23 01:53:33;;;;;;;9.95;8.75;;;16.50;99.90;;;;;;5089572;27;20038;-79
2022/08/23 01:56:00;;;;;;;10.25;8.63;;;16.30;99.90;;;;;;5100005;27;20054;-79
2022/08/23 01:58:28;;;;;;;10.05;7.90;;;16.30;99.90;;;;;;5110317;27;20051;-79
2022/08/23 02:00:54;;;;;;;9.10;7.97;;;16.20;99.90;;;;;;5092556;27;20074;-79
2022/08/23 02:03:23;;;;;;;8.70;7.53;;;16.20;99.90;;;;;;5102532;27;20092;-79
2022/08/23 02:05:49;;;;;;;8.80;7.97;;;16.10;99.90;;;;;;5100915;27;20150;-79
2022/08/23 02:11:07;;;;;;;11.85;9.65;;;16.10;99.90;;;;;;5100677;27;20104;-79
2022/08/23 02:13:33;;;;;;;10.38;9.40;;;16.00;99.90;;;;;;5099759;27;20067;-79
2022/08/23 02:15:59;;;;;;;9.93;8.40;;;16.00;99.90;;;;;;5106958;27;20096;-79
2022/08/23 02:18:25;;;;;;;8.93;8.02;;;16.00;99.90;;;;;;5098914;28;20098;-79
2022/08/23 02:20:52;;;;;;;10.05;7.68;;;15.90;99.90;;;;;;5084606;28;20056;-79
2022/08/23 02:23:19;;;;;;;8.15;6.78;;;15.90;99.90;;;;;;5120014;27;20038;-79
2022/08/23 02:25:45;;;;;;;8.63;7.80;;;15.80;99.90;;;;;;5116836;27;20933;-79
2022/08/23 02:28:10;;;;;;;8.98;8.07;;;15.80;99.90;;;;;;5085283;27;20523;-79
2022/08/23 02:30:37;;;;;;;9.88;8.20;;;15.80;99.90;;;;;;5113267;27;20049;-79
2022/08/23 02:33:02;;;;;;;9.43;8.48;;;15.70;99.90;;;;;;5083538;28;20512;-79
2022/08/23 02:35:28;;;;;;;10.07;8.52;;;15.70;99.90;;;;;;5109470;27;20047;-80
2022/08/23 02:37:54;;;;;;;9.50;8.48;;;15.70;99.90;;;;;;5103224;27;20047;-79
2022/08/23 02:40:21;;;;;;;8.63;7.72;;;15.70;99.90;;;;;;5064050;28;20032;-80
2022/08/23 02:42:47;;;;;;;11.10;8.45;;;15.70;99.90;;;;;;5104908;27;20123;-80
2022/08/23 02:45:12;;;;;;;7.68;6.90;;;15.70;99.90;;;;;;5067366;28;20124;-79
2022/08/23 02:47:38;;;;;;;8.73;6.95;;;15.70;99.90;;;;;;5072800;28;20051;-79
2022/08/23 02:50:06;;;;;;;9.35;7.03;;;15.60;99.90;;;;;;5094677;28;20050;-79
2022/08/23 02:52:32;;;;;;;9.70;8.70;;;15.60;99.90;;;;;;5091053;28;20040;-79
2022/08/23 02:54:58;;;;;;;9.68;7.72;;;15.50;99.90;;;;;;5079957;28;20125;-79
2022/08/23 02:57:25;;;;;;;8.90;8.00;;;15.50;99.90;;;;;;5085996;27;20075;-79
2022/08/23 02:59:51;;;;;;;9.25;7.47;;;15.50;99.90;;;;;;5091921;28;20521;-79
2022/08/23 03:02:17;;;;;;;8.07;7.28;;;15.40;99.90;;;;;;5096023;28;20049;-79
2022/08/23 03:04:43;;;;;;;7.93;7.13;;;15.40;99.90;;;;;;5100065;27;20166;-78
2022/08/23 03:07:09;;;;;;;9.02;7.28;;;15.40;99.90;;;;;;5090018;28;20118;-80
2022/08/23 03:09:35;;;;;;;8.15;7.22;;;15.40;99.90;;;;;;5107615;27;20069;-80
2022/08/23 03:12:01;;;;;;;7.95;7.25;;;15.30;99.90;;;;;;5095648;27;20055;-79
2022/08/23 03:14:27;;;;;;;7.97;7.28;;;15.30;99.90;;;;;;5082522;28;20115;-80
2022/08/23 03:16:54;;;;;;;8.07;7.07;;;15.20;99.90;;;;;;5085911;28;20115;-77
2022/08/23 03:19:20;;;;;;;7.47;6.78;;;15.20;99.90;;;;;;5084971;28;20482;-78
2022/08/23 03:21:46;;;;;;;8.32;7.50;;;15.20;99.90;;;;;;5098888;28;20498;-78
2022/08/23 03:24:12;;;;;;;9.98;8.98;;;15.20;99.90;;;;;;5117165;27;20745;-77
2022/08/23 03:26:42;;;;;;;9.45;8.38;;;15.20;99.90;;;;;;5069603;27;20058;-78
2022/08/23 03:29:08;;;;;;;9.05;8.20;;;15.20;99.90;;;;;;5090420;28;20101;-78
2022/08/23 03:31:37;;;;;;;10.05;7.82;;;15.20;99.90;;;;;;5089025;27;20431;-77
2022/08/23 03:34:04;;;;;;;10.48;7.88;;;15.20;99.90;;;;;;5101564;28;20031;-78
2022/08/23 03:36:31;;;;;;;8.48;7.68;;;15.10;99.90;;;;;;5116624;27;20549;-78
2022/08/23 03:38:57;;;;;;;8.38;7.18;;;15.10;99.90;;;;;;5120316;28;20109;-77
2022/08/23 03:41:23;;;;;;;8.88;7.97;;;15.10;99.90;;;;;;5095942;28;20640;-77
2022/08/23 03:43:49;;;;;;;8.25;7.45;;;15.00;99.90;;;;;;5077742;28;20047;-78
2022/08/23 03:46:24;;;;;;;9.20;8.30;;;15.00;99.90;;;;;;5110951;28;20041;-77
2022/08/23 03:48:53;;;;;;;8.00;7.28;;;15.10;99.90;;;;;;5090359;28;20039;-76
2022/08/23 03:51:20;;;;;;;8.68;7.88;;;15.00;99.90;;;;;;5098817;27;20039;-77
2022/08/23 03:53:49;;;;;;;8.00;7.20;;;15.00;99.90;;;;;;5118806;27;20043;-77
2022/08/23 03:56:29;;;;;;;8.70;7.90;;;15.00;99.90;;;;;;5092274;28;20175;-77
2022/08/23 03:58:57;;;;;;;9.18;8.23;;;15.00;99.90;;;;;;5106773;27;20180;-77
2022/08/23 04:01:23;;;;;;;8.25;7.28;;;14.90;99.90;;;;;;5119960;27;20050;-78
2022/08/23 04:03:49;;;;;;;10.13;9.13;;;14.90;99.90;;;;;;5096254;28;20551;-78
2022/08/23 04:06:20;;;;;;;8.52;7.53;;;14.90;99.90;;;;;;5101466;27;20401;-77
2022/08/23 04:08:47;;;;;;;17.88;16.15;;;14.90;99.90;;;;;;5109040;27;20047;-78
2022/08/23 04:11:13;;;;;;;10.43;9.43;;;14.90;99.90;;;;;;5122656;27;20104;-78
2022/08/23 04:13:39;;;;;;;8.68;7.82;;;14.90;99.90;;;;;;5107565;28;20050;-78
2022/08/23 04:16:06;;;;;;;10.63;9.00;;;14.90;99.90;;;;;;5073408;28;20044;-77
2022/08/23 04:18:33;;;;;;;10.70;9.57;;;14.90;99.90;;;;;;5085184;27;20047;-78
2022/08/23 04:21:02;;;;;;;9.00;8.20;;;15.00;99.90;;;;;;5121117;27;20141;-77
2022/08/23 04:23:28;;;;;;;9.25;8.35;;;15.00;99.90;;;;;;5102694;28;20169;-77
2022/08/23 04:25:54;;;;;;;12.73;10.23;;;15.00;99.90;;;;;;5119523;27;20169;-78
2022/08/23 04:28:21;;;;;;;12.25;10.68;;;15.00;99.90;;;;;;5110816;27;20521;-77
2022/08/23 04:30:50;;;;;;;12.60;10.38;;;15.00;99.90;;;;;;5088782;27;20043;-79
2022/08/23 04:33:17;;;;;;;12.15;11.00;;;15.00;99.90;;;;;;5101604;28;20128;-80
2022/08/23 04:35:43;;;;;;;12.40;11.10;;;15.00;99.90;;;;;;5075834;27;20227;-80
2022/08/23 04:38:10;;;;;;;12.35;11.32;;;15.00;99.90;;;;;;5111174;27;20058;-79
2022/08/23 04:43:20;;;;;;;13.30;11.70;;;15.00;99.90;;;;;;5111580;27;20232;-80
2022/08/23 04:45:47;;;;;;;18.13;16.40;;;15.00;99.90;;;;;;5082682;28;20128;-80
2022/08/23 04:48:13;;;;;;;21.15;19.13;;;15.00;99.90;;;;;;5100266;27;20073;-80
2022/08/23 04:50:42;;;;;;;14.57;13.27;;;15.00;99.90;;;;;;5101076;27;20591;-80
2022/08/23 04:53:08;;;;;;;14.32;12.93;;;15.00;99.90;;;;;;5086936;27;20043;-80
2022/08/23 04:55:33;;;;;;;21.95;19.90;;;15.10;99.90;;;;;;5099266;27;20043;-80
2022/08/23 04:58:00;;;;;;;28.80;25.98;;;15.10;99.90;;;;;;5069839;27;20043;-81
2022/08/23 05:00:26;;;;;;;33.75;28.30;;;15.10;99.90;;;;;;5080432;27;20107;-80
2022/08/23 05:02:51;;;;;;;16.38;14.98;;;15.10;99.90;;;;;;5087356;27;20062;-80
2022/08/23 05:05:19;;;;;;;17.88;16.10;;;15.10;99.90;;;;;;5084137;28;20039;-80
2022/08/23 05:07:45;;;;;;;18.98;17.08;;;15.10;99.90;;;;;;5086877;27;20127;-80
2022/08/23 05:10:14;;;;;;;26.42;23.83;;;15.20;99.90;;;;;;5098870;27;20064;-80
2022/08/23 05:12:41;;;;;;;26.52;23.75;;;15.20;99.90;;;;;;5117154;27;20482;-80
2022/08/23 05:15:08;;;;;;;19.27;17.48;;;15.20;99.90;;;;;;5095603;27;20035;-80
2022/08/23 05:17:38;;;;;;;20.08;18.13;;;15.20;99.90;;;;;;5112523;27;20491;-80
2022/08/23 05:20:09;;;;;;;16.63;14.95;;;15.30;99.90;;;;;;5092770;27;20573;-80
2022/08/23 05:22:37;;;;;;;18.55;16.85;;;15.30;99.90;;;;;;5112476;27;20040;-81
2022/08/23 05:25:03;;;;;;;18.20;16.50;;;15.30;99.90;;;;;;5122675;27;20042;-81
2022/08/23 05:27:29;;;;;;;15.77;14.27;;;15.40;99.90;;;;;;5082223;27;20126;-81
2022/08/23 05:29:55;;;;;;;14.65;13.18;;;15.50;99.90;;;;;;5079461;27;20158;-81
2022/08/23 05:32:21;;;;;;;19.10;17.30;;;15.50;99.90;;;;;;5082525;28;20075;-81
2022/08/23 05:34:47;;;;;;;20.48;18.77;;;15.50;99.90;;;;;;5099276;27;20110;-81
2022/08/23 05:37:14;;;;;;;22.52;20.63;;;15.60;99.90;;;;;;5100492;27;20035;-80
2022/08/23 05:39:40;;;;;;;19.42;17.70;;;15.60;99.90;;;;;;5095503;27;20052;-80
2022/08/23 05:42:09;;;;;;;22.00;20.00;;;15.60;99.90;;;;;;5083983;28;20104;-80
2022/08/23 05:44:38;;;;;;;18.45;16.92;;;15.60;99.90;;;;;;5113968;27;20135;-80
2022/08/23 05:47:09;;;;;;;20.02;18.30;;;15.70;99.90;;;;;;5118836;27;20043;-81
2022/08/23 05:49:39;;;;;;;18.98;17.25;;;15.70;99.90;;;;;;5118270;27;20040;-81
2022/08/23 05:52:12;;;;;;;23.95;21.83;;;15.80;99.90;;;;;;5097648;27;20084;-81
2022/08/23 05:54:38;;;;;;;21.90;19.83;;;15.80;99.90;;;;;;5115017;27;20056;-81
2022/08/23 05:57:04;;;;;;;22.33;20.52;;;15.90;99.90;;;;;;5099685;27;20047;-81
2022/08/23 05:59:30;;;;;;;21.15;19.15;;;15.90;99.90;;;;;;5099533;28;20120;-80
2022/08/23 06:01:56;;;;;;;19.02;17.27;;;16.00;99.90;;;;;;5086232;27;20078;-80
2022/08/23 06:04:22;;;;;;;21.10;18.98;;;16.10;99.90;;;;;;5100614;27;20382;-80
2022/08/23 06:06:48;;;;;;;20.17;18.45;;;16.20;99.90;;;;;;5108795;27;20047;-81
2022/08/23 06:09:16;;;;;;;20.33;18.73;;;16.20;99.90;;;;;;5117259;27;20035;-80
2022/08/23 06:11:47;;;;;;;21.08;19.27;;;16.30;99.90;;;;;;5096712;28;20501;-81
2022/08/23 06:14:14;;;;;;;20.45;18.70;;;16.40;99.90;;;;;;5106658;27;20489;-81
2022/08/23 06:16:43;;;;;;;20.00;18.20;;;16.50;99.90;;;;;;5093456;27;20071;-80
2022/08/23 06:19:10;;;;;;;21.65;19.63;;;16.60;99.90;;;;;;5096361;28;20118;-81
2022/08/23 06:21:38;;;;;;;19.55;17.55;;;16.70;99.90;;;;;;5095801;27;20431;-80
2022/08/23 06:24:05;;;;;;;20.65;18.77;;;16.80;99.90;;;;;;5074794;27;20100;-80
2022/08/23 06:26:36;;;;;;;18.85;17.02;;;16.90;99.90;;;;;;5097695;27;20053;-80
2022/08/23 06:29:06;;;;;;;20.20;18.30;;;17.00;99.90;;;;;;5095209;27;20134;-80
2022/08/23 06:31:44;;;;;;;20.42;18.33;;;17.10;99.90;;;;;;5098586;27;20040;-80
2022/08/23 06:34:19;;;;;;;19.15;17.45;;;17.20;99.90;;;;;;5092000;27;20031;-81
2022/08/23 06:36:47;;;;;;;19.83;18.02;;;17.30;99.90;;;;;;5110116;27;20113;-80
2022/08/23 06:39:16;;;;;;;18.63;16.80;;;17.40;99.90;;;;;;5113169;27;20050;-80
2022/08/23 06:41:42;;;;;;;18.45;16.73;;;17.50;99.90;;;;;;5113032;27;20062;-80
2022/08/23 06:44:09;;;;;;;17.73;16.02;;;17.50;99.90;;;;;;5113310;27;20040;-81
2022/08/23 06:46:38;;;;;;;17.38;15.68;;;17.60;99.90;;;;;;5112238;27;20054;-80
2022/08/23 06:49:09;;;;;;;17.38;15.73;;;17.70;99.90;;;;;;5074607;28;20065;-80
2022/08/23 06:51:39;;;;;;;17.85;16.05;;;17.80;99.90;;;;;;5110242;27;20039;-80
2022/08/23 06:54:07;;;;;;;17.00;15.55;;;17.90;99.90;;;;;;5100740;27;20711;-81
2022/08/23 06:56:38;;;;;;;16.60;15.13;;;18.00;99.90;;;;;;5090642;27;20047;-80
2022/08/23 06:59:05;;;;;;;15.13;13.63;;;18.10;99.90;;;;;;5077452;27;20067;-80
2022/08/23 07:01:33;;;;;;;14.07;12.73;;;18.20;99.90;;;;;;5102307;27;20584;-80
2022/08/23 07:04:01;;;;;;;13.95;12.73;;;18.30;99.90;;;;;;5096095;28;20054;-80
2022/08/23 07:06:28;;;;;;;14.48;13.07;;;18.30;99.90;;;;;;5103145;28;20468;-80
2022/08/23 07:08:54;;;;;;;14.02;12.82;;;18.50;99.90;;;;;;5102521;27;20046;-80
2022/08/23 07:11:21;;;;;;;13.93;12.68;;;18.60;99.90;;;;;;5099166;27;20089;-80
2022/08/23 07:13:48;;;;;;;13.07;11.77;;;18.70;99.90;;;;;;5116753;27;20035;-80
2022/08/23 07:16:16;;;;;;;12.60;11.52;;;18.80;99.90;;;;;;5098179;28;20119;-79
2022/08/23 07:18:44;;;;;;;12.15;11.15;;;18.90;99.90;;;;;;5096697;27;20695;-79
2022/08/23 07:21:11;;;;;;;12.00;10.90;;;19.00;99.90;;;;;;5096956;28;20482;-79
2022/08/23 07:23:38;;;;;;;12.35;11.05;;;19.20;99.90;;;;;;5105475;27;20097;-80
2022/08/23 07:26:09;;;;;;;14.82;11.35;;;19.40;99.90;;;;;;5092880;28;20043;-79
2022/08/23 07:28:40;;;;;;;12.38;11.18;;;19.60;99.90;;;;;;5115100;27;20126;-79
2022/08/23 07:31:13;;;;;;;12.00;10.80;;;19.80;99.90;;;;;;5102606;27;20051;-79
2022/08/23 07:33:40;;;;;;;12.60;11.20;;;19.80;99.90;;;;;;5094972;28;20337;-78
2022/08/23 07:36:07;;;;;;;11.15;10.07;;;19.80;99.90;;;;;;5072924;27;20039;-79
2022/08/23 07:38:34;;;;;;;14.13;11.60;;;19.80;99.90;;;;;;5093484;28;20405;-78
2022/08/23 07:41:02;;;;;;;14.40;11.10;;;19.90;99.90;;;;;;5111371;28;20057;-79
2022/08/23 07:43:30;;;;;;;12.07;10.38;;;19.90;99.90;;;;;;5081316;28;20040;-78
2022/08/23 07:45:56;;;;;;;11.88;10.73;;;19.90;99.90;;;;;;5104230;28;20043;-79
2022/08/23 07:48:22;;;;;;;12.32;10.48;;;19.90;99.90;;;;;;5080373;28;20438;-79
2022/08/23 07:50:53;;;;;;;12.75;11.00;;;20.00;99.90;;;;;;5096878;28;20040;-78
2022/08/23 07:53:20;;;;;;;12.10;10.00;;;20.10;99.90;;;;;;5088693;28;20041;-79
2022/08/23 07:55:45;;;;;;;11.00;9.90;;;20.20;99.90;;;;;;5082045;28;20054;-78
2022/08/23 07:58:11;;;;;;;12.65;9.70;;;20.30;99.90;;;;;;5076166;28;20108;-78
2022/08/23 08:00:37;;;;;;;10.10;9.05;;;20.40;99.90;;;;;;5090859;28;20077;-79
2022/08/23 08:03:04;;;;;;;11.45;9.07;;;20.50;99.90;;;;;;5078283;28;20062;-78
2022/08/23 08:05:33;;;;;;;10.65;8.65;;;20.70;99.90;;;;;;5079319;28;20039;-78
2022/08/23 08:08:00;;;;;;;10.00;8.30;;;20.90;99.90;;;;;;5097512;28;20055;-78
2022/08/23 08:10:26;;;;;;;9.45;8.55;;;21.10;99.90;;;;;;5110507;28;20376;-78
2022/08/23 08:12:52;;;;;;;9.52;7.95;;;21.30;99.90;;;;;;5064672;28;20043;-79
2022/08/23 08:15:19;;;;;;;9.15;7.65;;;21.50;99.90;;;;;;5106311;28;20564;-79
2022/08/23 08:17:48;;;;;;;7.80;6.93;;;21.60;99.90;;;;;;5076316;28;20051;-78
2022/08/23 08:20:14;;;;;;;13.57;9.48;;;21.70;99.90;;;;;;5098892;28;20052;-77
2022/08/23 08:22:41;;;;;;;11.60;7.85;;;21.80;99.90;;;;;;5087400;28;20044;-79
2022/08/23 08:25:10;;;;;;;8.60;7.18;;;21.80;99.90;;;;;;5108510;28;20054;-79
2022/08/23 08:27:36;;;;;;;9.48;8.57;;;21.90;99.90;;;;;;5108507;28;20071;-81
2022/08/23 08:30:03;;;;;;;9.10;8.20;;;21.90;99.90;;;;;;5106871;28;20414;-79
2022/08/23 08:32:29;;;;;;;8.65;7.72;;;21.90;99.90;;;;;;5091333;28;20498;-79
2022/08/23 08:34:55;;;;;;;11.15;7.65;;;22.00;99.90;;;;;;5078432;28;20039;-79
2022/08/23 08:37:21;;;;;;;9.00;7.70;;;22.30;99.90;;;;;;5095457;27;20086;-79
2022/08/23 08:39:47;;;;;;;8.95;8.05;;;22.50;99.90;;;;;;5094458;27;20043;-78
2022/08/23 08:42:31;;;;;;;9.90;7.07;;;22.70;99.90;;;;;;5072066;28;20040;-79
2022/08/23 08:45:02;;;;;;;8.07;6.78;;;23.00;99.90;;;;;;5094749;27;20044;-79
2022/08/23 08:47:38;;;;;;;10.95;7.15;;;23.10;99.90;;;;;;5102723;27;20058;-79
2022/08/23 08:50:11;;;;;;;7.68;6.53;;;23.30;99.90;;;;;;5097062;27;20142;-79
2022/08/23 08:52:46;;;;;;;7.95;5.47;;;23.50;99.90;;;;;;5095404;28;20088;-79
2022/08/23 08:55:19;;;;;;;8.52;6.05;;;23.60;99.90;;;;;;5101876;27;20074;-79
2022/08/23 08:57:47;;;;;;;7.90;5.57;;;23.60;99.90;;;;;;5118561;27;20042;-79
2022/08/23 09:00:18;;;;;;;7.93;5.78;;;23.70;99.90;;;;;;5078438;27;20047;-81
2022/08/23 09:02:45;;;;;;;8.48;5.60;;;23.80;99.90;;;;;;5095062;27;20054;-79
2022/08/23 09:05:25;;;;;;;6.32;5.30;;;23.90;99.90;;;;;;5111161;27;20054;-79
2022/08/23 09:08:09;;;;;;;7.38;5.00;;;23.90;99.90;;;;;;5105229;27;20122;-79
2022/08/23 09:10:57;;;;;;;9.05;5.68;;;23.90;99.90;;;;;;5096897;28;20413;-78
2022/08/23 09:13:52;;;;;;;8.40;6.13;;;24.00;99.90;;;;;;5104926;27;20092;-79
2022/08/23 09:16:42;;;;;;;8.45;5.30;;;24.00;99.90;;;;;;5103380;27;20099;-77
2022/08/23 09:19:08;;;;;;;5.13;4.40;;;24.00;99.90;;;;;;5101150;27;20035;-80
2022/08/23 09:21:54;;;;;;;6.88;4.35;;;24.00;99.90;;;;;;5101928;27;20047;-79
2022/08/23 09:24:21;;;;;;;8.57;5.75;;;24.20;99.90;;;;;;5092029;28;20066;-80
2022/08/23 09:26:47;;;;;;;7.55;4.90;;;24.30;99.90;;;;;;5112536;27;20768;-80
2022/08/23 09:29:17;;;;;;;6.63;4.20;;;24.40;99.90;;;;;;5100738;27;20401;-80
2022/08/23 09:31:46;;;;;;;;;;;24.50;99.90;;;;;;5108220;27;20099;-80
2022/08/23 09:34:20;;;;;;;8.95;4.32;;;24.70;99.90;;;;;;5097478;27;19949;-78
2022/08/23 09:36:47;;;;;;;5.53;3.90;;;24.80;99.90;;;;;;5096419;27;20496;-77
2022/08/23 09:39:52;;;;;;;8.00;4.70;;;24.90;99.90;;;;;;5103718;27;20054;-80
2022/08/23 09:42:37;;;;;;;6.00;4.20;;;25.20;98.70;;;;;;5096333;27;20134;-78
2022/08/23 09:45:26;;;;;;;6.82;3.67;;;25.50;98.40;;;;;;5105684;27;20043;-78
2022/08/23 09:47:52;;;;;;;6.55;3.60;;;25.60;97.90;;;;;;5107438;27;20126;-78
2022/08/23 09:50:41;;;;;;;9.00;4.32;;;25.70;99.60;;;;;;5095716;27;20552;-80
2022/08/23 09:53:11;;;;;;;7.85;3.97;;;25.80;96.70;;;;;;5095984;27;20055;-78
2022/08/23 09:55:50;;;;;;;8.98;4.70;;;25.90;97.80;;;;;;5115425;27;20039;-81
2022/08/23 09:58:34;;;;;;;6.93;4.10;;;26.10;95.40;;;;;;5113432;27;20032;-78
2022/08/23 10:01:10;;;;;;;9.77;4.05;;;26.30;94.40;;;;;;5101674;27;20501;-79
2022/08/23 10:03:37;;;;;;;7.28;5.18;;;26.50;94.60;;;;;;5110455;27;20043;-80
2022/08/23 10:06:03;;;;;;;8.60;5.18;;;26.70;93.10;;;;;;5112226;27;20042;-80
2022/08/23 10:08:33;;;;;;;7.50;4.57;;;26.80;93.60;;;;;;5109964;27;20037;-80
2022/08/23 10:11:22;;;;;;;7.10;4.45;;;26.90;93.10;;;;;;5090207;27;20142;-81
2022/08/23 10:13:48;;;;;;;7.85;5.70;;;27.10;93.40;;;;;;5086790;28;20071;-80
2022/08/23 10:16:39;;;;;;;9.10;4.90;;;27.10;92.20;;;;;;5093335;27;20453;-81
2022/08/23 10:19:35;;;;;;;7.03;3.70;;;27.10;92.00;;;;;;5111206;27;20123;-80
2022/08/23 10:22:42;;;;;;;7.45;3.78;;;27.10;93.30;;;;;;5081577;27;20044;-81
2022/08/23 10:25:22;;;;;;;5.85;4.00;;;27.20;90.70;;;;;;5040551;28;20040;-81
2022/08/23 10:31:02;;;;;;;8.35;3.45;;;27.10;89.50;;;;;;5108432;27;20051;-80
2022/08/23 10:33:52;;;;;;;;;;;27.10;90.90;;;;;;5108709;27;20047;-81
2022/08/23 10:36:32;;;;;;;6.15;3.60;;;27.10;90.90;;;;;;5098799;27;20327;-82
2022/08/23 10:39:15;;;;;;;5.53;3.97;;;27.20;89.00;;;;;;5107354;27;20506;-81
2022/08/23 10:41:57;;;;;;;10.60;4.55;;;27.30;85.50;;;;;;5105134;27;20366;-81
2022/08/23 10:44:39;;;;;;;8.02;4.65;;;27.30;85.60;;;;;;5096802;27;20615;-81
2022/08/23 10:47:41;;;;;;;8.15;3.42;;;27.40;87.70;;;;;;5108862;27;20067;-81
2022/08/23 10:50:11;;;;;;;6.75;3.42;;;27.50;88.10;;;;;;5090803;27;20046;-81
2022/08/23 10:53:07;;;;;;;7.38;3.70;;;27.70;84.50;;;;;;5096262;27;20128;-80
2022/08/23 10:56:01;;;;;;;6.85;3.50;;;27.70;86.70;;;;;;5092823;28;20058;-81
2022/08/23 10:58:38;;;;;;;5.75;3.50;;;27.90;81.90;;;;;;5086662;27;20382;-80
2022/08/23 11:01:05;;;;;;;8.77;3.30;;;28.00;80.00;;;;;;5091494;27;20737;-80
2022/08/23 11:03:36;;;;;;;7.53;3.60;;;28.10;79.00;;;;;;5096085;27;20065;-78
2022/08/23 11:06:26;;;;;;;7.38;3.67;;;28.20;77.50;;;;;;5106498;27;20055;-79
2022/08/23 11:09:09;;;;;;;5.97;3.42;;;28.30;79.10;;;;;;5097537;28;20043;-78
2022/08/23 11:11:46;;;;;;;7.53;3.30;;;28.40;78.30;;;;;;5100193;28;20039;-81
2022/08/23 11:14:31;;;;;;;6.85;3.55;;;28.50;78.10;;;;;;5090562;27;20048;-79
2022/08/23 11:17:06;;;;;;;6.55;2.90;;;28.70;78.00;;;;;;5103953;27;20040;-80
2022/08/23 11:20:07;;;;;;;7.30;2.58;;;28.80;77.40;;;;;;5105757;27;20054;-80
2022/08/23 11:22:56;;;;;;;18.92;3.53;;;28.80;73.90;;;;;;5057389;27;20054;-81
2022/08/23 11:25:21;;;;;;;6.30;2.87;;;28.80;70.80;;;;;;5082030;27;20739;-80
2022/08/23 11:27:48;;;;;;;7.22;2.40;;;28.80;72.00;;;;;;5093119;27;20071;-81
2022/08/23 11:30:38;;;;;;;9.73;3.55;;;28.90;71.60;;;;;;5096786;27;20770;-80
2022/08/23 11:33:19;;;;;;;7.22;3.08;;;28.90;67.70;;;;;;5108474;27;20119;-80
2022/08/23 11:36:11;;;;;;;5.90;2.65;;;28.80;68.20;;;;;;5091608;28;20043;-79
2022/08/23 11:38:45;;;;;;;6.80;2.45;;;28.80;66.80;;;;;;5076821;28;20054;-80
2022/08/23 11:41:29;;;;;;;6.88;2.78;;;28.80;65.90;;;;;;5084707;28;20055;-80
2022/08/23 11:43:55;;;;;;;7.35;3.15;;;28.80;65.90;;;;;;5094438;28;20130;-80
2022/08/23 11:46:25;;;;;;;5.75;2.65;;;28.80;65.50;;;;;;5089734;28;20130;-81
2022/08/23 11:49:13;;;;;;;7.70;3.05;;;28.90;68.00;;;;;;5092993;28;20190;-80
2022/08/23 11:51:57;;;;;;;9.13;3.33;;;29.00;66.30;;;;;;5097424;28;20047;-80
2022/08/23 11:54:51;;;;;;;8.57;3.00;;;29.10;65.20;;;;;;5111805;28;20414;-80
2022/08/23 11:57:48;;;;;;;6.75;3.17;;;29.10;66.60;;;;;;5096667;28;20046;-80
2022/08/23 12:00:43;;;;;;;7.80;3.17;;;29.10;66.30;;;;;;5111679;28;20031;-80
2022/08/23 12:03:32;;;;;;;6.55;3.47;;;29.10;66.80;;;;;;5094346;28;20501;-80
2022/08/23 12:06:19;;;;;;;9.63;3.28;;;29.20;67.20;;;;;;5108549;28;20126;-82
2022/08/23 12:08:47;;;;;;;7.28;3.15;;;29.20;64.40;;;;;;5094527;28;20058;-80
2022/08/23 12:11:16;;;;;;;3.85;2.60;;;29.20;65.20;;;;;;5097386;27;20481;-80
2022/08/23 12:13:55;;;;;;;7.03;3.38;;;29.20;65.30;;;;;;5095390;28;20078;-79
2022/08/23 12:16:22;;;;;;;7.10;2.63;;;29.40;63.80;;;;;;5098484;27;20035;-80
2022/08/23 12:18:48;;;;;;;5.60;2.60;;;29.40;64.50;;;;;;5099482;27;20054;-79
2022/08/23 12:21:23;;;;;;;6.57;2.63;;;29.50;64.10;;;;;;5111384;27;20123;-79
2022/08/23 12:23:56;;;;;;;7.35;3.58;;;29.60;64.10;;;;;;5094813;27;20051;-79
2022/08/23 12:26:48;;;;;;;7.55;2.80;;;29.60;61.80;;;;;;5112765;27;20082;-81
2022/08/23 12:29:24;;;;;;;8.60;2.90;;;29.70;62.10;;;;;;5095635;27;20046;-80
2022/08/23 12:31:50;;;;;;;5.20;2.72;;;29.70;63.10;;;;;;5092412;27;20451;-82
2022/08/23 12:34:26;;;;;;;5.95;2.95;;;29.70;61.10;;;;;;5118171;27;20043;-82
2022/08/23 12:37:26;;;;;;;8.70;3.63;;;29.70;62.50;;;;;;5115986;27;20039;-82
2022/08/23 12:39:56;;;;;;;5.60;2.60;;;29.80;61.40;;;;;;5096464;27;20051;-79
2022/08/23 12:42:32;;;;;;;6.65;3.28;;;29.80;62.80;;;;;;5096238;28;20044;-79
2022/08/23 12:45:16;;;;;;;5.85;2.60;;;29.80;61.20;;;;;;5097990;27;20042;-81
2022/08/23 12:47:54;;;;;;;5.93;2.92;;;29.80;61.40;;;;;;5110788;27;20085;-80
2022/08/23 12:50:26;;;;;;;7.47;2.53;;;29.90;61.60;;;;;;5113631;27;20075;-80
2022/08/23 12:53:00;;;;;;;5.82;2.50;;;30.10;60.30;;;;;;5103499;27;20124;-81
2022/08/23 12:55:31;;;;;;;5.05;2.78;;;30.10;59.10;;;;;;5094465;27;20054;-79
2022/08/23 12:57:58;;;;;;;5.97;2.78;;;30.00;58.10;;;;;;5109957;27;20545;-80
2022/08/23 13:00:56;;;;;;;5.47;2.63;;;29.90;58.20;;;;;;5075119;27;20509;-80
2022/08/23 13:03:32;;;;;;;6.40;2.80;;;29.60;58.90;;;;;;5112174;27;20489;-80
2022/08/23 13:06:09;;;;;;;5.60;2.50;;;29.40;58.70;;;;;;5095284;27;20092;-79
2022/08/23 13:08:41;;;;;;;5.60;2.53;;;29.30;60.30;;;;;;5091601;27;20614;-78
2022/08/23 13:11:09;;;;;;;6.72;2.42;;;29.20;61.00;;;;;;5110809;27;20124;-80
2022/08/23 13:13:41;;;;;;;6.60;2.60;;;29.10;60.00;;;;;;5113979;27;20047;-80
2022/08/23 13:16:25;;;;;;;6.57;2.22;;;29.00;59.30;;;;;;5108546;27;20052;-80
2022/08/23 13:18:51;;;;;;;7.93;2.40;;;28.90;57.50;;;;;;5096364;27;20123;-79